Latest Weather Observations for Moruya Airport

IDN60901

Issued at 3:01 pm EST Wednesday 29 July 2015 (issued every 10 minutes, with the page automatically refreshed every 10 minutes)

About weather observations | Map of Canberra area stations | Latest observations for Canberra area | Other Formats
Station Details ID: 069148 Name: MORUYA AIRPORT AWS Lat: -35.90 Lon: 150.14 Height: 4.0 m
Data from the previous 72 hours. | See also: Recent months for locations in Aust Capital Territory
Date/Time
EST
Tmp

°C
App
Tmp
°C
Dew
Point
°C
Rel
Hum
%
Delta-T

°C
Wind Press
QNH
hPa
Press
MSL
hPa
Rain
since
9 am
mm
Dir
 
Spd
km/h
Gust
km/h
Spd
kts
Gust
kts
29/02:30pm 15.1 10.4 7.6 61 3.7 NE 22 28 12 15 1029.3 1029.3 0.0
29/02:00pm 15.5 11.2 7.8 60 3.8 NE 20 26 11 14 1029.7 1029.7 0.0
29/01:30pm 15.4 10.5 6.9 57 4.2 NE 22 28 12 15 1030.2 1030.2 0.0
29/01:00pm 15.7 11.3 7.2 57 4.2 NE 20 26 11 14 1030.8 1030.8 0.0
29/12:30pm 15.5 11.2 8.0 61 3.7 NE 20 26 11 14 1031.4 1031.4 0.0
29/11:30am 14.1 12.0 9.7 75 2.3 E 11 15 6 8 1032.7 1032.7 0.0
29/11:00am 13.9 12.4 9.1 73 2.4 ENE 7 9 4 5 1033.4 1033.4 0.0
29/10:30am 13.5 12.4 8.6 72 2.5 SSW 4 11 2 6 1033.8 1033.8 0.0
29/10:00am 12.1 10.5 8.8 80 1.6 SW 7 11 4 6 1034.3 1034.3 0.0
29/09:30am 9.6 7.9 8.2 91 0.7 SSW 7 9 4 5 1034.4 1034.4 0.0
29/09:00am 8.1 7.7 8.1 100 0.0 CALM 0 6 0 3 1034.6 1034.6 0.0
29/08:30am 6.7 5.9 6.7 100 0.0 CALM 0 0 0 0 1034.5 1034.5 0.0
29/08:00am 5.2 4.1 5.2 100 0.0 CALM 0 0 0 0 1034.4 1034.4 0.0
29/07:30am 2.9 0.6 2.9 100 0.0 W 4 6 2 3 1034.3 1034.3 0.0
29/07:23am 2.9 0.6 2.9 100 0.0 WNW 4 7 2 4 1034.2 1034.2 0.0
29/07:00am 2.7 1.1 2.7 100 0.0 CALM 0 0 0 0 1034.1 1034.1 0.0
29/06:58am 2.5 0.9 2.5 100 0.0 CALM 0 0 0 0 1034.1 1034.1 0.0
29/06:32am 2.7 1.1 2.7 100 0.0 CALM 0 6 0 3 1033.7 1033.7 0.0
29/06:30am 2.8 0.9 2.8 100 0.0 NNW 2 6 1 3 1033.7 1033.7 0.0
29/06:05am 2.6 -0.1 2.6 100 0.0 W 6 7 3 4 1033.5 1033.5 0.0
29/05:30am 2.4 0.4 2.4 100 0.0 W 2 7 1 4 1033.2 1033.2 0.0
29/05:21am 2.3 -0.5 2.3 100 0.0 W 6 7 3 4 1033.2 1033.2 0.0
29/05:00am 3.4 2.0 3.4 100 0.0 CALM 0 7 0 4 1033.0 1033.0 0.0
29/04:50am 3.3 1.9 3.3 100 0.0 CALM 0 0 0 0 1033.0 1033.0 0.0
29/04:30am 3.8 2.4 3.8 100 0.0 CALM 0 0 0 0 1032.9 1032.9 0.0
29/04:07am 3.4 2.0 3.4 100 0.0 CALM 0 0 0 0 1033.0 1033.0 0.0
29/04:00am 4.2 2.9 4.2 100 0.0 CALM 0 0 0 0 1033.0 1033.0 0.0
29/03:32am 4.3 1.9 4.3 100 0.0 WSW 6 7 3 4 1032.8 1032.8 0.0
29/03:30am 4.5 2.0 4.5 100 0.0 WSW 7 7 4 4 1032.8 1032.8 0.0
29/03:16am 4.3 2.7 4.3 100 0.0 SW 2 7 1 4 1032.8 1032.8 0.0
29/03:00am 4.8 2.5 4.8 100 0.0 WSW 6 9 3 5 1032.8 1032.8 0.0
29/02:30am 5.0 2.7 5.0 100 0.0 WSW 6 7 3 4 1033.1 1033.1 0.0
29/02:00am 5.4 2.7 5.4 100 0.0 W 9 13 5 7 1033.2 1033.2 0.0
29/01:30am 5.2 2.4 5.2 100 0.0 WSW 9 13 5 7 1033.3 1033.3 0.0
29/01:00am 6.1 3.9 6.1 100 0.0 W 7 11 4 6 1033.2 1033.2 0.0
29/12:30am 6.9 4.5 6.9 100 0.0 W 9 15 5 8 1033.1 1033.1 0.0
 
Date/Time
EST
Tmp

°C
App
Tmp
°C
Dew
Point
°C
Rel
Hum
%
Delta-T

°C
Wind Press
QNH
hPa
Press
MSL
hPa
Rain
since
9 am
mm
Dir
 
Spd
km/h
Gust
km/h
Spd
kts
Gust
kts
28/11:30pm 6.2 4.0 6.2 100 0.0 W 7 9 4 5 1033.2 1033.2 0.0
28/11:00pm 7.2 5.2 7.2 100 0.0 W 7 13 4 7 1033.3 1033.3 0.0
28/10:30pm 6.3 4.1 6.3 100 0.0 WSW 7 11 4 6 1033.3 1033.3 0.0
28/10:00pm 6.7 4.2 6.7 100 0.0 W 9 15 5 8 1033.3 1033.3 0.0
28/09:30pm 8.0 5.5 8.0 100 0.0 WSW 11 13 6 7 1033.3 1033.3 0.0
28/09:00pm 7.0 5.0 7.0 100 0.0 WSW 7 11 4 6 1033.1 1033.1 0.0
28/08:30pm 6.7 4.6 6.7 100 0.0 W 7 11 4 6 1033.0 1033.0 0.0
28/08:00pm 6.3 5.5 6.3 100 0.0 CALM 0 0 0 0 1032.7 1032.7 0.0
28/07:30pm 6.6 5.4 6.6 100 0.0 WSW 2 6 1 3 1032.5 1032.5 0.0
28/07:00pm 7.0 5.0 7.0 100 0.0 WNW 7 11 4 6 1032.2 1032.2 0.0
28/06:30pm 8.1 6.5 8.0 99 0.0 NW 6 9 3 5 1031.9 1031.9 0.0
28/05:30pm 10.2 9.4 8.3 88 0.9 SW 2 6 1 3 1031.2 1031.2 0.0
28/05:00pm 12.4 12.0 8.3 76 2.0 CALM 0 6 0 3 1030.8 1030.8 0.0
28/04:30pm 14.7 13.1 8.9 68 2.9 ESE 7 13 4 7 1030.6 1030.6 0.0
28/04:00pm 14.8 12.0 8.7 67 3.1 SE 13 20 7 11 1030.2 1030.2 0.0
28/03:30pm 15.3 12.6 8.8 65 3.3 SE 13 20 7 11 1030.2 1030.2 0.0
28/03:00pm 16.2 13.2 9.4 64 3.5 SE 15 20 8 11 1030.0 1030.0 0.0
28/02:30pm 15.8 12.8 7.6 58 4.1 ESE 13 19 7 10 1029.9 1029.9 0.0
28/02:00pm 16.2 12.7 7.2 55 4.4 SE 15 19 8 10 1029.8 1029.8 0.0
28/01:30pm 16.9 13.7 5.2 46 5.6 SW 11 17 6 9 1029.9 1029.9 0.0
28/01:00pm 17.7 13.5 5.9 46 5.7 SSW 17 28 9 15 1030.1 1030.1 0.0
28/12:30pm 17.0 12.2 4.7 44 5.8 SSW 19 28 10 15 1030.6 1030.6 0.0
28/12:00pm 16.7 11.8 5.0 46 5.5 S 20 30 11 16 1030.8 1030.8 0.0
28/11:30am 16.4 13.0 5.7 49 5.2 SW 13 22 7 12 1031.3 1031.3 0.0
28/11:00am 15.7 13.1 5.9 52 4.7 SW 9 13 5 7 1031.4 1031.4 0.0
28/10:30am 14.9 12.5 5.1 52 4.6 W 7 11 4 6 1031.8 1031.8 0.0
28/10:00am 12.8 10.6 6.4 65 3.0 SW 7 11 4 6 1031.8 1031.8 0.0
28/09:30am 11.7 9.7 6.2 69 2.6 W 6 11 3 6 1031.8 1031.8 0.0
28/09:00am 10.4 8.7 7.5 82 1.4 NE 6 9 3 5 1031.7 1031.7 0.0
28/08:30am 6.0 3.9 6.0 100 0.0 WSW 6 9 3 5 1031.4 1031.4 0.0
28/08:00am 3.4 1.6 3.4 100 0.0 ESE 2 7 1 4 1031.2 1031.2 0.0
28/07:30am 1.6 -0.1 1.6 100 0.0 CALM 0 0 0 0 1030.8 1030.8 0.0
28/07:00am 0.9 -0.9 0.9 100 0.0 CALM 0 6 0 3 1030.2 1030.2 0.0
28/06:30am 1.2 -1.0 1.2 100 0.0 WSW 2 6 1 3 1030.0 1030.0 0.0
28/06:00am 1.1 -0.7 1.1 100 0.0 CALM 0 0 0 0 1029.5 1029.5 0.0
28/05:30am 1.2 -1.7 1.2 100 0.0 WNW 6 11 3 6 1029.0 1029.0 0.0
28/05:00am 0.7 -1.2 0.7 100 0.0 CALM 0 6 0 3 1028.6 1028.6 0.0
28/04:30am 1.1 -1.5 1.1 100 0.0 NNW 4 7 2 4 1028.5 1028.5 0.0
28/04:00am 1.0 -2.2 1.0 100 0.0 WNW 7 11 4 6 1028.3 1028.3 0.0
28/03:30am 2.0 0.3 2.0 100 0.0 CALM 0 0 0 0 1028.3 1028.3 0.0
28/03:00am 2.0 -0.9 1.4 96 0.2 W 6 9 3 5 1028.1 1028.1 0.0
28/02:30am 2.1 -0.7 -0.3 84 0.9 NNW 4 7 2 4 1028.1 1028.1 0.0
28/02:00am 5.8 2.6 1.0 71 1.9 WNW 7 11 4 6 1028.1 1028.1 0.0
28/01:30am 7.7 3.8 1.3 64 2.6 W 11 20 6 11 1027.8 1027.8 0.0
28/01:00am 8.0 3.4 1.6 64 2.6 W 15 22 8 12 1027.7 1027.7 0.0
28/12:30am 7.9 3.8 2.0 66 2.4 W 13 19 7 10 1027.7 1027.7 0.0
28/12:00am 6.7 3.3 2.0 72 1.9 W 9 13 5 7 1027.9 1027.9 0.0
 
Date/Time
EST
Tmp

°C
App
Tmp
°C
Dew
Point
°C
Rel
Hum
%
Delta-T

°C
Wind Press
QNH
hPa
Press
MSL
hPa
Rain
since
9 am
mm
Dir
 
Spd
km/h
Gust
km/h
Spd
kts
Gust
kts
27/11:30pm 5.4 2.1 2.4 81 1.2 WNW 9 13 5 7 1027.8 1027.8 0.0
27/11:00pm 2.9 -0.3 2.9 100 0.0 W 9 13 5 7 1027.6 1027.6 0.0
27/10:30pm 1.9 -0.9 1.9 100 0.0 W 6 7 3 4 1027.5 1027.5 0.0
27/10:00pm 2.9 0.2 2.8 99 0.0 W 6 7 3 4 1027.3 1027.3 0.0
27/09:30pm 2.9 -0.3 2.8 99 0.0 WSW 9 13 5 7 1027.1 1027.1 0.0
27/09:00pm 3.1 1.5 2.5 96 0.2 CALM 0 0 0 0 1027.1 1027.1 0.0
27/08:30pm 4.1 1.4 2.6 90 0.6 NW 6 7 3 4 1026.8 1026.8 0.0
27/08:00pm 4.1 1.3 2.1 87 0.8 NW 6 9 3 5 1026.4 1026.4 0.0
27/07:30pm 6.3 3.4 2.8 78 1.4 W 7 11 4 6 1026.2 1026.2 0.0
27/07:00pm 5.9 2.7 3.1 82 1.2 WSW 9 11 5 6 1025.9 1025.9 0.0
27/06:30pm 6.6 3.4 3.0 78 1.5 WSW 9 11 5 6 1025.3 1025.3 0.0
27/06:00pm 7.5 4.4 1.1 64 2.6 W 7 13 4 7 1024.9 1024.9 0.0
27/05:30pm 10.6 7.2 1.9 55 3.7 WSW 9 13 5 7 1024.4 1024.4 0.0
27/05:00pm 12.6 8.6 0.7 44 5.0 WSW 11 15 6 8 1024.2 1024.2 0.0
27/04:30pm 14.4 10.4 0.3 38 6.0 WSW 11 20 6 11 1023.6 1023.6 0.0
27/04:00pm 15.2 10.5 1.0 38 6.1 SW 15 26 8 14 1023.4 1023.4 0.0
27/03:30pm 15.2 9.6 0.2 36 6.4 WSW 19 24 10 13 1023.1 1023.1 0.0
27/03:00pm 15.3 9.9 1.1 38 6.1 WSW 19 30 10 16 1022.9 1022.9 0.0
27/02:30pm 15.0 9.8 0.4 37 6.2 WSW 17 30 9 16 1022.9 1022.9 0.0
27/02:00pm 15.2 9.5 0.6 37 6.2 WSW 20 33 11 18 1022.9 1022.9 0.0
27/01:30pm 15.5 9.9 0.9 37 6.3 WSW 20 32 11 17 1022.8 1022.8 0.0
27/01:00pm 15.8 10.3 0.8 36 6.5 WSW 19 35 10 19 1023.0 1023.0 0.0
27/12:30pm 15.0 8.6 0.8 38 6.1 WSW 24 37 13 20 1023.2 1023.2 0.0
27/12:00pm 14.4 7.1 0.3 38 5.9 WSW 28 41 15 22 1023.4 1023.4 0.0
27/11:30am 13.9 8.4 0.5 40 5.7 WSW 19 35 10 19 1023.5 1023.5 0.0
27/11:00am 13.2 9.3 1.2 44 5.1 NW 11 17 6 9 1023.9 1023.9 0.0
27/10:30am 12.7 8.4 0.8 44 5.0 WNW 13 19 7 10 1023.8 1023.8 0.0
27/10:00am 11.7 7.3 0.2 45 4.7 NNW 13 17 7 9 1023.9 1023.9 0.0
27/09:30am 10.7 6.2 -0.1 47 4.4 NW 13 20 7 11 1023.8 1023.8 0.0
27/09:00am 9.6 5.9 0.0 51 3.8 NW 9 15 5 8 1023.7 1023.7 0.0
27/08:30am 7.3 4.9 2.0 69 2.2 NW 4 7 2 4 1023.5 1023.5 0.0
27/08:00am 4.7 3.1 2.6 86 0.8 CALM 0 6 0 3 1023.2 1023.2 0.0
27/07:30am 1.0 -1.6 0.7 98 0.1 W 4 13 2 7 1022.6 1022.6 0.0
27/07:00am 0.6 -3.1 0.0 96 0.2 W 9 13 5 7 1022.2 1022.2 0.0
27/06:30am -0.1 -3.9 -0.4 98 0.1 WNW 9 17 5 9 1021.8 1021.8 0.0
27/06:00am 0.3 -3.0 0.3 100 0.0 W 7 9 4 5 1021.3 1021.3 0.0
27/05:30am 0.1 -3.0 0.1 100 0.0 WNW 6 7 3 4 1020.8 1020.8 0.0
27/05:00am 0.1 -1.9 0.1 100 0.0 CALM 0 6 0 3 1019.9 1019.9 0.0
27/04:30am 0.2 -2.9 0.1 99 0.0 WSW 6 7 3 4 1019.4 1019.4 0.0
27/04:00am 0.4 -1.5 0.3 99 0.0 CALM 0 0 0 0 1018.9 1018.9 0.0
27/03:30am 1.1 -1.9 0.7 97 0.1 WSW 6 7 3 4 1018.5 1018.5 0.0
27/03:00am 1.6 -1.3 1.2 97 0.2 N 6 9 3 5 1018.3 1018.3 0.0
27/02:30am 1.7 -1.4 0.4 91 0.5 N 6 7 3 4 1018.3 1018.3 0.0
27/02:00am 2.8 -0.9 0.2 83 1.0 N 9 11 5 6 1018.3 1018.3 0.0
27/01:30am 3.3 0.5 -0.2 78 1.3 N 4 7 2 4 1018.0 1018.0 0.0
27/01:00am 5.5 2.0 -1.0 63 2.4 NNE 7 11 4 6 1017.9 1017.9 0.0
27/12:30am 6.4 2.2 -1.0 59 2.8 WNW 11 15 6 8 1017.5 1017.5 0.0
27/12:00am 7.9 3.7 -1.1 53 3.4 WNW 11 15 6 8 1017.6 1017.6 0.0
 
Date/Time
EST
Tmp

°C
App
Tmp
°C
Dew
Point
°C
Rel
Hum
%
Delta-T

°C
Wind Press
QNH
hPa
Press
MSL
hPa
Rain
since
9 am
mm
Dir
 
Spd
km/h
Gust
km/h
Spd
kts
Gust
kts
26/11:30pm 7.3 4.0 -0.9 56 3.1 NW 6 7 3 4 1017.9 1017.9 0.0
26/11:00pm 8.8 5.0 -1.0 50 3.8 NNE 9 13 5 7 1017.8 1017.8 0.0
26/10:30pm 9.8 5.2 -1.3 46 4.3 W 13 19 7 10 1017.5 1017.5 0.0
26/10:00pm 10.1 4.7 -1.0 46 4.3 W 17 24 9 13 1017.2 1017.2 0.0
26/09:30pm 10.2 4.8 -1.2 45 4.5 W 17 26 9 14 1017.1 1017.1 0.0
26/09:00pm 10.8 4.9 -0.9 44 4.6 W 20 35 11 19 1017.0 1017.0 0.0
26/08:30pm 10.8 6.1 -1.9 41 4.9 W 13 20 7 11 1016.9 1016.9 0.0
26/08:00pm 11.2 6.0 -2.6 38 5.3 W 15 24 8 13 1016.5 1016.5 0.0
26/07:30pm 11.4 6.2 -2.4 38 5.3 W 15 24 8 13 1016.0 1016.0 0.0
26/07:00pm 12.1 6.2 -2.5 36 5.7 W 19 30 10 16 1015.3 1015.3 0.0
26/06:30pm 12.5 6.4 -2.1 36 5.7 W 20 30 11 16 1014.8 1014.8 0.0
26/06:00pm 13.1 6.3 -2.0 35 6.0 W 24 50 13 27 1013.8 1013.8 0.0
26/05:51pm 13.6 6.0 -2.3 33 6.3 W 28 50 15 27 1013.4 1013.4 0.0
26/05:30pm 13.3 8.0 -0.7 38 5.7 W 17 30 9 16 1012.9 1012.9 0.0
26/05:00pm 14.4 7.7 -1.2 34 6.4 W 24 43 13 23 1011.9 1011.9 0.0
26/04:30pm 15.7 9.2 0.3 35 6.6 W 24 52 13 28 1011.0 1011.0 0.0
26/04:06pm 16.5 9.3 0.6 34 6.9 WNW 28 65 15 35 1010.5 1010.5 0.0
26/04:00pm 16.9 10.3 1.8 36 6.7 WNW 26 43 14 23 1010.2 1010.2 0.0
26/03:54pm 17.3 10.3 1.7 35 7.0 W 28 48 15 26 1009.7 1009.7 0.0
26/03:30pm 18.1 13.2 4.3 40 6.5 WNW 19 28 10 15 1009.5 1009.5 0.0

Latest Capital City Observations: Canberra | Sydney | Melbourne | Brisbane | Adelaide | Perth | Hobart | Darwin

Other Formats:

Comma delimited format used in spreadsheet applications
http://www.bom.gov.au/fwo/IDN60903/IDN60903.95937.axf

JavaScript Object Notation format (JSON) in row-major order
http://www.bom.gov.au/fwo/IDN60903/IDN60903.95937.json